Time;durP1;ratioP1;P1;durP2;ratioP2;P2;SDS_P1;SDS_P2;PMS_P1;PMS_P2;Temp;Humidity;BMP_temperature;BMP_pressure;BME280_temperature;BME280_humidity;BME280_pressure;Samples;Min_cycle;Max_cycle;Signal;HPM_P1;HPM_P2
2021/03/24 00:00:22;;;;;;;118.78;49.83;;;3.50;95.10;;;;;;4936341;29;20046;-86
2021/03/24 00:02:47;;;;;;;;;;;3.50;95.10;;;;;;4938832;29;20133;-86
2021/03/24 00:05:17;;;;;;;106.32;43.95;;;3.50;95.00;;;;;;4938466;29;20001;-87
2021/03/24 00:07:44;;;;;;;114.00;49.15;;;3.40;95.10;;;;;;4939369;29;20030;-87
2021/03/24 00:10:10;;;;;;;133.55;55.00;;;3.40;95.20;;;;;;4936924;29;20388;-87
2021/03/24 00:12:37;;;;;;;100.25;43.42;;;3.40;95.20;;;;;;4939709;29;20054;-86
2021/03/24 00:15:08;;;;;;;109.82;46.78;;;3.40;95.20;;;;;;4955735;29;20435;-87
2021/03/24 00:17:33;;;;;;;112.47;46.95;;;3.40;95.30;;;;;;4939327;29;20032;-87
2021/03/24 00:19:59;;;;;;;108.13;45.17;;;3.40;95.30;;;;;;4939562;29;20031;-87
2021/03/24 00:22:24;;;;;;;108.93;45.53;;;3.40;95.30;;;;;;4930990;29;20036;-87
2021/03/24 00:24:50;;;;;;;102.70;45.42;;;3.40;95.20;;;;;;4939682;29;20391;-87
2021/03/24 00:27:16;;;;;;;122.50;48.97;;;3.30;95.20;;;;;;4950248;29;20035;-87
2021/03/24 00:29:41;;;;;;;106.05;44.05;;;3.20;95.20;;;;;;4950719;29;20027;-87
2021/03/24 00:32:07;;;;;;;113.63;48.08;;;3.20;95.30;;;;;;4953081;29;20035;-87
2021/03/24 00:34:33;;;;;;;109.40;46.88;;;3.20;95.40;;;;;;4956485;29;20399;-87
2021/03/24 00:36:58;;;;;;;124.30;49.35;;;3.20;95.50;;;;;;4957135;29;20027;-87
2021/03/24 00:39:24;;;;;;;82.85;35.25;;;3.20;95.60;;;;;;4952517;29;20451;-87
2021/03/24 00:41:50;;;;;;;94.82;43.00;;;3.20;95.40;;;;;;4939762;29;20035;-87
2021/03/24 00:44:15;;;;;;;87.32;39.58;;;3.00;95.00;;;;;;4954820;29;20041;-88
2021/03/24 00:46:41;;;;;;;106.78;43.63;;;2.90;95.20;;;;;;4935483;29;20074;-87
2021/03/24 00:49:06;;;;;;;95.40;42.70;;;2.80;95.30;;;;;;4943493;29;20077;-87
2021/03/24 00:51:32;;;;;;;95.97;42.90;;;2.80;95.50;;;;;;4939497;29;20051;-86
2021/03/24 00:53:57;;;;;;;95.70;41.03;;;2.80;95.50;;;;;;4956885;29;20035;-86
2021/03/24 00:56:24;;;;;;;109.40;45.67;;;2.80;95.60;;;;;;4934854;29;20122;-87
2021/03/24 00:58:49;;;;;;;122.47;48.72;;;2.70;95.50;;;;;;4956077;28;20063;-87
2021/03/24 01:01:15;;;;;;;95.22;42.00;;;2.70;95.70;;;;;;4947936;29;20039;-88
2021/03/24 01:03:40;;;;;;;105.55;46.30;;;2.70;95.60;;;;;;4947214;29;20423;-86
2021/03/24 01:06:06;;;;;;;105.00;44.92;;;2.70;95.50;;;;;;4934997;29;20023;-86
2021/03/24 01:08:31;;;;;;;122.78;47.42;;;2.70;95.50;;;;;;4938227;29;20030;-86
2021/03/24 01:10:57;;;;;;;127.28;50.60;;;2.70;95.60;;;;;;4935722;29;20443;-86
2021/03/24 01:13:24;;;;;;;129.25;50.15;;;2.70;95.80;;;;;;4948442;29;20117;-86
2021/03/24 01:15:50;;;;;;;131.43;50.10;;;2.80;95.80;;;;;;4929176;29;20102;-86
2021/03/24 01:18:17;;;;;;;128.55;52.38;;;2.80;95.70;;;;;;4939756;29;20099;-86
2021/03/24 01:20:43;;;;;;;134.02;51.15;;;2.80;95.80;;;;;;4933526;29;20023;-86
2021/03/24 01:23:09;;;;;;;144.93;52.70;;;2.90;95.80;;;;;;4936006;29;20032;-85
2021/03/24 01:25:36;;;;;;;159.35;55.42;;;2.90;95.80;;;;;;4939780;29;20058;-85
2021/03/24 01:28:05;;;;;;;120.05;44.33;;;2.90;95.90;;;;;;4945502;29;20506;-85
2021/03/24 01:30:32;;;;;;;121.03;45.95;;;2.90;95.60;;;;;;4936428;29;20027;-85
2021/03/24 01:32:58;;;;;;;135.25;50.95;;;2.90;95.60;;;;;;4938200;29;20035;-86
2021/03/24 01:35:24;;;;;;;143.75;53.22;;;2.80;95.70;;;;;;4936154;29;20076;-85
2021/03/24 01:37:50;;;;;;;151.88;54.97;;;2.80;95.90;;;;;;4932505;29;20043;-86
2021/03/24 01:40:30;;;;;;;149.50;52.00;;;2.80;96.00;;;;;;4930895;29;20122;-86
2021/03/24 01:42:59;;;;;;;142.65;53.40;;;2.90;95.90;;;;;;4953372;29;20023;-86
2021/03/24 01:45:24;;;;;;;156.32;55.70;;;2.80;95.90;;;;;;4952008;29;20023;-86
2021/03/24 01:47:50;;;;;;;247.40;51.55;;;2.90;95.90;;;;;;4949985;29;20031;-85
2021/03/24 01:50:22;;;;;;;143.05;51.58;;;2.90;95.90;;;;;;4953516;29;20031;-86
2021/03/24 01:52:48;;;;;;;143.68;52.33;;;2.80;95.80;;;;;;4954291;29;20031;-86
2021/03/24 01:55:15;;;;;;;149.45;54.55;;;2.70;95.90;;;;;;4945750;29;20082;-85
2021/03/24 01:57:44;;;;;;;174.18;57.38;;;2.70;95.90;;;;;;4936538;29;20400;-85
2021/03/24 02:00:16;;;;;;;166.05;57.75;;;2.70;96.00;;;;;;4947101;28;20114;-86
2021/03/24 02:02:42;;;;;;;159.73;55.70;;;2.80;96.20;;;;;;4949768;29;20039;-86
2021/03/24 02:05:08;;;;;;;178.85;61.33;;;2.80;96.10;;;;;;4950133;29;20101;-86
2021/03/24 02:08:08;;;;;;;180.13;61.75;;;2.80;96.10;;;;;;4938060;29;20066;-85
2021/03/24 02:10:36;;;;;;;164.30;58.03;;;2.80;96.20;;;;;;4944591;29;20023;-85
2021/03/24 02:13:34;;;;;;;175.82;61.53;;;2.90;96.20;;;;;;4940076;29;20019;-85
2021/03/24 02:16:21;;;;;;;173.13;61.30;;;2.90;96.10;;;;;;4951739;29;20038;-86
2021/03/24 02:18:49;;;;;;;187.73;59.03;;;2.90;96.10;;;;;;4940985;29;20046;-85
2021/03/24 02:21:21;;;;;;;188.27;59.55;;;2.90;96.10;;;;;;4947885;29;20022;-85
2021/03/24 02:23:57;;;;;;;168.83;55.97;;;2.90;96.20;;;;;;4948511;29;20029;-86
2021/03/24 02:26:44;;;;;;;162.50;53.75;;;2.90;96.20;;;;;;4948921;29;20027;-86
2021/03/24 02:29:12;;;;;;;176.57;57.97;;;2.90;96.10;;;;;;4951939;29;20111;-86
2021/03/24 02:31:40;;;;;;;167.25;56.50;;;2.80;96.10;;;;;;4952927;29;20034;-86
2021/03/24 02:34:10;;;;;;;161.75;55.72;;;2.80;96.10;;;;;;4937103;29;20034;-86
2021/03/24 02:36:37;;;;;;;193.70;58.15;;;2.80;96.20;;;;;;4953285;29;20102;-86
2021/03/24 02:39:09;;;;;;;204.90;63.10;;;2.80;96.20;;;;;;4936978;29;20031;-86
2021/03/24 02:41:35;;;;;;;;;;;2.80;96.30;;;;;;4932313;29;20023;-86
2021/03/24 02:44:02;;;;;;;179.20;56.42;;;2.80;96.60;;;;;;4936709;29;19953;-86
2021/03/24 02:46:28;;;;;;;176.30;55.45;;;2.80;96.30;;;;;;4935839;29;20037;-86
2021/03/24 02:48:55;;;;;;;177.93;56.67;;;2.80;96.20;;;;;;4941303;29;20028;-86
2021/03/24 02:51:24;;;;;;;177.05;59.40;;;2.80;96.20;;;;;;4932832;29;20028;-86
2021/03/24 02:53:51;;;;;;;184.05;61.67;;;2.80;96.30;;;;;;4934666;29;20059;-87
2021/03/24 02:56:17;;;;;;;188.80;59.05;;;2.80;96.40;;;;;;4941357;29;20023;-87
2021/03/24 02:58:43;;;;;;;175.63;59.60;;;2.90;96.40;;;;;;4935008;29;20043;-86
2021/03/24 03:01:24;;;;;;;169.48;58.60;;;2.90;96.40;;;;;;4948545;29;20051;-86
2021/03/24 03:03:55;;;;;;;185.05;59.58;;;2.90;96.40;;;;;;4918491;29;548707;-86
2021/03/24 03:06:24;;;;;;;182.43;58.95;;;2.80;96.40;;;;;;4933270;29;20074;-86
2021/03/24 03:09:00;;;;;;;201.00;60.35;;;2.80;96.40;;;;;;4935054;29;20752;-86
2021/03/24 03:11:55;;;;;;;193.00;60.13;;;2.90;96.50;;;;;;4937260;29;20055;-86
2021/03/24 03:14:39;;;;;;;185.63;59.13;;;2.80;96.40;;;;;;4937683;29;20034;-87
2021/03/24 03:17:14;;;;;;;210.82;60.42;;;2.80;96.40;;;;;;4946845;29;20043;-87
2021/03/24 03:19:55;;;;;;;198.75;60.20;;;2.80;96.50;;;;;;4942126;29;20456;-86
2021/03/24 03:22:29;;;;;;;178.85;59.03;;;2.80;96.50;;;;;;4933812;29;20028;-86
2021/03/24 03:25:00;;;;;;;170.48;58.03;;;2.70;96.50;;;;;;4953491;29;20099;-86
2021/03/24 03:27:28;;;;;;;194.65;61.35;;;2.70;96.50;;;;;;4941112;29;20118;-86
2021/03/24 03:29:57;;;;;;;200.18;61.03;;;2.70;96.50;;;;;;4947993;29;20027;-87
2021/03/24 03:32:25;;;;;;;191.30;56.85;;;2.70;96.60;;;;;;4937237;29;20115;-86
2021/03/24 03:35:01;;;;;;;174.40;57.83;;;2.60;96.50;;;;;;4927400;29;20067;-86
2021/03/24 03:37:28;;;;;;;170.57;54.38;;;2.60;96.50;;;;;;4936429;29;20776;-86
2021/03/24 03:39:55;;;;;;;162.60;53.05;;;2.60;96.50;;;;;;4945184;29;20436;-86
2021/03/24 03:42:22;;;;;;;181.75;57.17;;;2.50;96.50;;;;;;4936458;29;20066;-86
2021/03/24 03:44:50;;;;;;;176.02;56.67;;;2.50;96.60;;;;;;4951725;29;20031;-86
2021/03/24 03:47:16;;;;;;;162.27;56.10;;;2.40;96.50;;;;;;4952640;29;20031;-87
2021/03/24 03:49:42;;;;;;;171.43;57.35;;;2.40;96.60;;;;;;4940087;29;20027;-86
2021/03/24 03:52:11;;;;;;;169.50;55.88;;;2.40;96.60;;;;;;4936323;29;20038;-86
2021/03/24 03:54:43;;;;;;;165.38;56.15;;;2.40;96.70;;;;;;4955935;29;20023;-87
2021/03/24 03:57:19;;;;;;;156.50;55.22;;;2.40;96.70;;;;;;4956158;29;20034;-86
2021/03/24 03:59:54;;;;;;;155.70;55.17;;;2.40;96.80;;;;;;4953928;28;20415;-86
2021/03/24 04:02:27;;;;;;;161.98;57.15;;;2.40;96.80;;;;;;4932797;29;20043;-86
2021/03/24 04:05:05;;;;;;;151.10;52.08;;;2.40;96.80;;;;;;4936340;29;20034;-87
2021/03/24 04:07:57;;;;;;;168.32;58.22;;;2.40;96.80;;;;;;4938791;29;20027;-87
2021/03/24 04:10:25;;;;;;;157.07;55.42;;;2.40;96.80;;;;;;4952383;29;20031;-86
2021/03/24 04:12:54;;;;;;;142.15;51.70;;;2.30;96.70;;;;;;4938977;29;20125;-86
2021/03/24 04:15:21;;;;;;;140.45;52.13;;;2.30;96.70;;;;;;4937176;29;20448;-86
2021/03/24 04:17:50;;;;;;;134.30;50.33;;;2.30;96.70;;;;;;4945562;29;20399;-87
2021/03/24 04:20:19;;;;;;;145.93;52.75;;;2.20;96.70;;;;;;4947761;29;20050;-88
2021/03/24 04:22:47;;;;;;;139.35;50.15;;;2.20;96.70;;;;;;4952587;29;20433;-87
2021/03/24 04:25:19;;;;;;;137.85;51.38;;;2.10;96.70;;;;;;4956075;28;20046;-87
2021/03/24 04:27:47;;;;;;;154.90;53.75;;;2.10;96.70;;;;;;4952713;29;20086;-87
2021/03/24 04:30:18;;;;;;;140.98;51.40;;;2.00;96.70;;;;;;4946885;28;20038;-87
2021/03/24 04:32:44;;;;;;;142.23;50.78;;;2.00;96.80;;;;;;4939634;29;20400;-87
2021/03/24 04:35:14;;;;;;;120.60;49.30;;;2.00;96.70;;;;;;4936058;29;20023;-87
2021/03/24 04:37:45;;;;;;;126.38;45.38;;;1.90;96.70;;;;;;4938802;29;20027;-87
2021/03/24 04:40:22;;;;;;;120.95;47.30;;;1.80;96.50;;;;;;4939910;29;20090;-87
2021/03/24 04:43:02;;;;;;;125.38;47.42;;;1.80;96.70;;;;;;4939204;29;20403;-86
2021/03/24 04:45:42;;;;;;;108.35;46.45;;;1.80;96.90;;;;;;4945030;29;20031;-87
2021/03/24 04:48:15;;;;;;;126.00;49.13;;;1.70;96.90;;;;;;4937910;29;20102;-86
2021/03/24 04:50:47;;;;;;;123.63;49.38;;;1.80;97.10;;;;;;4957176;29;20031;-87
2021/03/24 04:53:16;;;;;;;139.60;52.00;;;1.80;97.00;;;;;;4944254;28;20043;-86
2021/03/24 04:55:43;;;;;;;133.85;50.63;;;1.80;97.00;;;;;;4949512;29;20027;-86
2021/03/24 04:58:35;;;;;;;139.38;51.50;;;1.90;97.00;;;;;;4955748;29;20126;-86
2021/03/24 05:01:13;;;;;;;126.93;47.88;;;1.80;96.90;;;;;;4928040;29;20463;-87
2021/03/24 05:03:42;;;;;;;130.98;51.42;;;1.80;96.90;;;;;;4937173;29;20050;-86
2021/03/24 05:06:32;;;;;;;125.88;49.67;;;1.80;97.00;;;;;;4942415;29;20047;-86
2021/03/24 05:09:00;;;;;;;141.68;51.15;;;1.80;97.00;;;;;;4928024;29;20050;-86
2021/03/24 05:11:39;;;;;;;148.15;54.13;;;1.80;97.00;;;;;;4952555;29;20023;-86
2021/03/24 05:14:26;;;;;;;141.25;52.22;;;1.90;97.10;;;;;;4955995;29;20023;-86
2021/03/24 05:17:06;;;;;;;140.00;53.75;;;1.90;97.00;;;;;;4955034;29;20035;-86
2021/03/24 05:19:32;;;;;;;136.63;50.72;;;1.90;97.00;;;;;;4950227;29;20094;-86
2021/03/24 05:22:16;;;;;;;143.98;54.00;;;1.90;97.00;;;;;;4935447;29;20027;-86
2021/03/24 05:24:42;;;;;;;140.70;53.42;;;1.90;97.00;;;;;;4929024;29;20059;-86
2021/03/24 05:27:17;;;;;;;148.85;54.95;;;1.90;97.00;;;;;;4942122;29;20031;-86
2021/03/24 05:29:48;;;;;;;135.80;52.85;;;2.00;97.00;;;;;;4950594;29;20031;-85
2021/03/24 05:32:24;;;;;;;147.15;56.60;;;2.00;97.00;;;;;;4936428;29;20035;-86
2021/03/24 05:34:53;;;;;;;144.93;55.90;;;2.00;97.10;;;;;;4951010;29;20038;-86
2021/03/24 05:37:26;;;;;;;147.02;58.63;;;2.00;97.00;;;;;;4935964;29;20058;-86
2021/03/24 05:39:51;;;;;;;;;;;2.10;97.10;;;;;;4951905;29;20427;-86
2021/03/24 05:42:20;;;;;;;141.80;52.95;;;2.10;97.00;;;;;;4954002;29;19914;-86
2021/03/24 05:45:12;;;;;;;151.60;57.35;;;2.10;97.00;;;;;;4934725;29;20024;-86
2021/03/24 05:48:14;;;;;;;146.00;54.35;;;2.10;97.00;;;;;;4952491;29;20038;-86
2021/03/24 05:50:48;;;;;;;140.45;53.15;;;2.10;96.90;;;;;;4941658;29;20039;-85
2021/03/24 05:53:51;;;;;;;140.07;54.80;;;2.10;96.90;;;;;;4947389;29;20480;-86
2021/03/24 05:56:38;;;;;;;144.23;53.25;;;2.00;96.90;;;;;;4941689;29;20039;-86
2021/03/24 05:59:51;;;;;;;151.93;56.42;;;2.10;97.00;;;;;;4948478;28;20039;-86
2021/03/24 06:02:39;;;;;;;144.38;53.25;;;2.10;97.10;;;;;;4953910;28;20071;-86
2021/03/24 06:05:12;;;;;;;139.55;53.15;;;2.10;97.00;;;;;;4952918;29;20031;-86
2021/03/24 06:07:50;;;;;;;154.23;58.25;;;2.10;97.00;;;;;;4947978;29;20102;-86
2021/03/24 06:10:36;;;;;;;153.00;56.85;;;2.20;97.10;;;;;;4946212;29;20539;-85
2021/03/24 06:13:05;;;;;;;156.95;59.25;;;2.20;97.00;;;;;;4955253;29;20384;-86
2021/03/24 06:16:07;;;;;;;152.20;58.10;;;2.30;97.10;;;;;;4952325;29;20411;-86
2021/03/24 06:18:42;;;;;;;166.48;59.83;;;2.30;97.10;;;;;;4924613;29;20046;-86
2021/03/24 06:21:19;;;;;;;135.07;55.95;;;2.40;97.10;;;;;;4945019;28;20232;-86
2021/03/24 06:24:03;;;;;;;153.75;59.10;;;2.50;97.10;;;;;;4948216;28;20074;-87
2021/03/24 06:27:05;;;;;;;142.77;58.15;;;2.50;97.10;;;;;;4954384;28;20113;-87
2021/03/24 06:30:14;;;;;;;153.30;57.42;;;2.60;97.10;;;;;;4931936;28;20078;-87
2021/03/24 06:33:04;;;;;;;151.07;57.28;;;2.60;97.10;;;;;;4952336;29;20543;-88
2021/03/24 06:35:39;;;;;;;161.65;60.60;;;2.70;97.10;;;;;;4945108;29;20263;-88
2021/03/24 06:38:35;;;;;;;146.48;58.72;;;2.70;97.10;;;;;;4936525;29;20464;-87
2021/03/24 06:41:11;;;;;;;156.40;61.33;;;2.80;97.10;;;;;;4944945;29;20505;-87
2021/03/24 06:44:01;;;;;;;135.25;56.63;;;2.80;97.10;;;;;;4946835;29;20102;-87
2021/03/24 06:46:36;;;;;;;152.75;60.15;;;2.90;97.10;;;;;;4952450;29;20033;-87
2021/03/24 06:49:38;;;;;;;128.85;52.60;;;3.00;97.20;;;;;;4933620;29;20488;-87
2021/03/24 06:52:50;;;;;;;146.88;58.58;;;3.10;97.50;;;;;;4949893;29;20035;-87
2021/03/24 06:55:38;;;;;;;126.60;53.55;;;3.10;97.10;;;;;;4933610;29;20043;-89
2021/03/24 06:58:15;;;;;;;131.50;55.53;;;3.20;97.10;;;;;;4948217;29;20078;-87
2021/03/24 07:01:03;;;;;;;126.35;53.92;;;3.30;97.10;;;;;;4946246;29;20032;-87
2021/03/24 07:04:02;;;;;;;122.03;54.22;;;3.40;97.00;;;;;;4902311;28;20071;-90
2021/03/24 07:06:58;;;;;;;136.07;57.95;;;3.50;97.10;;;;;;4954700;28;20046;-88
2021/03/24 07:09:41;;;;;;;131.05;55.03;;;3.60;97.00;;;;;;4952724;29;20016;-89
2021/03/24 07:12:17;;;;;;;128.07;56.83;;;3.80;97.00;;;;;;4941286;28;20027;-89
2021/03/24 07:14:46;;;;;;;120.45;53.85;;;3.90;97.00;;;;;;4935743;28;20022;-88
2021/03/24 07:17:37;;;;;;;125.75;54.97;;;4.10;97.00;;;;;;4944138;29;20027;-88
2021/03/24 07:20:31;;;;;;;134.82;57.75;;;4.20;97.00;;;;;;4939122;28;20500;-88
2021/03/24 07:23:14;;;;;;;139.63;57.33;;;4.30;96.90;;;;;;4956566;28;20034;-87
2021/03/24 07:25:45;;;;;;;127.07;55.17;;;4.40;96.90;;;;;;4963894;28;20019;-89
2021/03/24 07:28:36;;;;;;;115.88;52.28;;;4.60;96.90;;;;;;4957848;28;20035;-87
2021/03/24 07:31:29;;;;;;;113.88;54.03;;;4.70;96.80;;;;;;4939407;28;20031;-88
2021/03/24 07:34:00;;;;;;;116.47;54.33;;;4.80;96.70;;;;;;4947902;29;20027;-88
2021/03/24 07:37:06;;;;;;;124.03;54.33;;;4.90;96.60;;;;;;4957853;28;20082;-88
2021/03/24 07:39:50;;;;;;;118.45;54.92;;;5.10;96.60;;;;;;4966916;28;20491;-88
2021/03/24 07:42:27;;;;;;;118.07;55.78;;;5.20;96.60;;;;;;4956381;28;20494;-88
2021/03/24 07:45:23;;;;;;;119.20;55.65;;;5.30;96.40;;;;;;4968408;28;20089;-87
2021/03/24 07:47:54;;;;;;;112.70;55.40;;;5.50;96.30;;;;;;4971081;28;20031;-88
2021/03/24 07:50:40;;;;;;;116.25;56.67;;;5.60;96.30;;;;;;4964784;28;20030;-88
2021/03/24 07:53:14;;;;;;;117.80;54.70;;;5.80;96.20;;;;;;4966051;28;20035;-88
2021/03/24 07:55:46;;;;;;;118.05;56.13;;;5.90;96.20;;;;;;4943164;29;20028;-87
2021/03/24 07:58:24;;;;;;;117.72;52.15;;;6.10;96.10;;;;;;4951825;29;20035;-87
2021/03/24 08:01:01;;;;;;;115.95;54.75;;;6.30;96.00;;;;;;4952927;28;20074;-86
2021/03/24 08:03:57;;;;;;;113.82;54.28;;;6.40;95.80;;;;;;4948356;29;20051;-87
2021/03/24 08:06:50;;;;;;;108.68;51.25;;;6.50;95.70;;;;;;4943314;28;20031;-86
2021/03/24 08:09:40;;;;;;;103.40;51.33;;;6.70;95.60;;;;;;4958601;29;20038;-85
2021/03/24 08:12:44;;;;;;;105.85;51.13;;;6.90;95.50;;;;;;4942142;29;20558;-85
2021/03/24 08:15:29;;;;;;;103.25;49.92;;;7.00;95.30;;;;;;4920435;29;20035;-88
2021/03/24 08:18:28;;;;;;;106.47;52.25;;;7.10;95.20;;;;;;4933729;29;20039;-87
2021/03/24 08:21:04;;;;;;;102.55;50.55;;;7.30;95.00;;;;;;4955267;29;20105;-86
2021/03/24 08:23:57;;;;;;;102.85;50.22;;;7.40;94.80;;;;;;4943757;29;20031;-86
2021/03/24 08:26:39;;;;;;;96.53;50.30;;;7.60;94.60;;;;;;4945469;28;20479;-86
2021/03/24 08:29:31;;;;;;;103.40;51.00;;;7.70;94.40;;;;;;4955325;28;20435;-86
2021/03/24 08:32:06;;;;;;;93.20;48.08;;;7.80;94.20;;;;;;4957343;29;20035;-87
2021/03/24 08:34:41;;;;;;;104.13;51.80;;;7.90;94.00;;;;;;4956289;28;20031;-87
2021/03/24 08:37:29;;;;;;;106.90;53.00;;;8.00;93.50;;;;;;4956473;28;20574;-86
2021/03/24 08:40:38;;;;;;;99.65;50.67;;;8.10;93.40;;;;;;4938679;29;20044;-87
2021/03/24 08:43:31;;;;;;;94.57;48.25;;;8.20;93.40;;;;;;4938720;29;20040;-86
2021/03/24 08:46:39;;;;;;;101.63;52.33;;;8.40;93.20;;;;;;4953145;29;20050;-86
2021/03/24 08:49:17;;;;;;;91.68;47.28;;;8.50;93.00;;;;;;4936090;29;20467;-86
2021/03/24 08:52:05;;;;;;;100.57;50.50;;;8.60;92.90;;;;;;4952022;29;20034;-86
2021/03/24 08:54:44;;;;;;;97.57;47.30;;;8.80;92.60;;;;;;4940977;28;20440;-86
2021/03/24 08:57:18;;;;;;;91.65;48.50;;;8.80;91.90;;;;;;4935931;29;20032;-86
2021/03/24 08:59:57;;;;;;;94.88;47.72;;;8.80;91.70;;;;;;4932864;29;20035;-86
2021/03/24 09:02:43;;;;;;;95.57;48.08;;;9.00;91.70;;;;;;4956949;28;20059;-86
2021/03/24 09:05:39;;;;;;;89.90;47.45;;;9.10;91.50;;;;;;4956744;29;20078;-86
2021/03/24 09:08:22;;;;;;;93.03;47.90;;;9.20;91.40;;;;;;4956416;29;20023;-86
2021/03/24 09:10:51;;;;;;;96.47;50.15;;;9.30;91.10;;;;;;4940880;29;20027;-86
2021/03/24 09:13:30;;;;;;;98.32;48.88;;;9.40;90.90;;;;;;4948198;29;20027;-86
2021/03/24 09:16:30;;;;;;;90.50;47.20;;;9.50;90.70;;;;;;4951517;29;20071;-86
2021/03/24 09:19:33;;;;;;;90.10;48.13;;;9.60;90.50;;;;;;4930087;29;20067;-84
2021/03/24 09:22:16;;;;;;;86.63;44.97;;;9.80;90.40;;;;;;4951960;29;20503;-86
2021/03/24 09:24:58;;;;;;;82.72;44.67;;;9.90;90.20;;;;;;4946853;29;20035;-84
2021/03/24 09:27:55;;;;;;;96.55;48.15;;;10.00;90.00;;;;;;4938111;29;20574;-87
2021/03/24 09:30:41;;;;;;;89.88;47.60;;;10.10;89.60;;;;;;4931672;29;20515;-89
2021/03/24 09:33:49;;;;;;;87.97;45.67;;;10.20;89.10;;;;;;4937710;29;20020;-86
2021/03/24 09:36:36;;;;;;;81.38;42.80;;;10.30;88.70;;;;;;4933773;29;20087;-84
2021/03/24 09:39:27;;;;;;;80.32;43.75;;;10.40;88.30;;;;;;4952473;29;20035;-87
2021/03/24 09:42:07;;;;;;;81.20;43.17;;;10.50;87.50;;;;;;4952795;28;20338;-86
2021/03/24 09:45:05;;;;;;;94.97;43.38;;;10.60;87.30;;;;;;4947813;29;20114;-86
2021/03/24 09:47:45;;;;;;;76.78;41.17;;;10.70;87.00;;;;;;4914482;29;20510;-87
2021/03/24 09:50:13;;;;;;;81.95;42.30;;;10.90;86.30;;;;;;4957229;29;20423;-86
2021/03/24 09:52:55;;;;;;;79.25;41.22;;;11.00;85.90;;;;;;4939031;29;20082;-85
2021/03/24 09:55:23;;;;;;;82.70;42.63;;;11.10;85.60;;;;;;4955970;28;20058;-86
2021/03/24 09:58:23;;;;;;;80.05;43.47;;;11.30;84.50;;;;;;4950971;29;20029;-86
2021/03/24 10:01:13;;;;;;;76.30;38.42;;;11.30;84.00;;;;;;4940828;29;20034;-87
2021/03/24 10:03:47;;;;;;;73.25;37.92;;;11.40;83.30;;;;;;4938586;29;20407;-87
2021/03/24 10:06:44;;;;;;;70.10;36.72;;;11.50;83.20;;;;;;4942991;29;20023;-87
2021/03/24 10:09:21;;;;;;;74.65;37.92;;;11.60;82.10;;;;;;4937537;29;20430;-86
2021/03/24 10:12:02;;;;;;;68.68;35.42;;;11.60;81.80;;;;;;4954252;29;20035;-86
2021/03/24 10:14:33;;;;;;;58.80;32.35;;;11.80;81.20;;;;;;4950974;29;20031;-86
2021/03/24 10:17:07;;;;;;;63.97;34.33;;;11.90;79.60;;;;;;4938471;29;20070;-86
2021/03/24 10:19:50;;;;;;;63.92;33.58;;;11.90;78.60;;;;;;4935399;28;20465;-86
2021/03/24 10:22:22;;;;;;;61.97;34.63;;;12.00;78.80;;;;;;4954838;28;20031;-86
2021/03/24 10:25:15;;;;;;;60.60;32.27;;;12.10;78.70;;;;;;4950558;29;20031;-86
2021/03/24 10:27:47;;;;;;;61.60;31.00;;;12.30;78.70;;;;;;4944215;29;20034;-86
2021/03/24 10:30:13;;;;;;;58.28;32.03;;;12.40;78.40;;;;;;4935376;29;20035;-86
2021/03/24 10:33:04;;;;;;;58.17;31.45;;;12.60;78.20;;;;;;4935340;29;20498;-84
2021/03/24 10:35:42;;;;;;;60.05;32.45;;;12.70;76.00;;;;;;4953969;28;20503;-89
2021/03/24 10:38:10;;;;;;;59.35;31.85;;;12.80;76.20;;;;;;4939679;29;20035;-86
2021/03/24 10:40:43;;;;;;;54.03;28.73;;;13.00;75.60;;;;;;4951950;28;20062;-86
2021/03/24 10:43:31;;;;;;;52.97;28.15;;;13.00;74.00;;;;;;4946927;28;20039;-87
2021/03/24 10:46:32;;;;;;;57.30;29.05;;;13.10;72.60;;;;;;4952579;29;20127;-87
2021/03/24 10:49:01;;;;;;;49.80;28.58;;;13.20;71.70;;;;;;4940437;29;20171;-87
2021/03/24 10:51:36;;;;;;;60.03;30.50;;;13.30;71.80;;;;;;4954781;28;20038;-87
2021/03/24 10:54:16;;;;;;;59.25;31.55;;;13.40;71.80;;;;;;4937976;29;20496;-87
2021/03/24 10:57:08;;;;;;;62.58;31.17;;;13.50;71.30;;;;;;4938346;29;20031;-86
2021/03/24 10:59:48;;;;;;;50.15;27.77;;;13.50;71.20;;;;;;4952906;29;20035;-86
2021/03/24 11:02:38;;;;;;;51.88;29.55;;;13.50;70.80;;;;;;4953998;28;20024;-87
2021/03/24 11:05:11;;;;;;;59.58;29.00;;;13.60;70.70;;;;;;4952544;29;20122;-87
2021/03/24 11:07:52;;;;;;;50.88;26.73;;;13.70;70.40;;;;;;4934862;29;20049;-87
2021/03/24 11:10:20;;;;;;;44.95;24.92;;;13.80;70.00;;;;;;4937953;29;20085;-86
2021/03/24 11:12:55;;;;;;;43.17;23.85;;;13.80;69.40;;;;;;4951141;29;20046;-86
2021/03/24 11:15:38;;;;;;;48.13;25.90;;;13.90;68.50;;;;;;4955268;29;20033;-86
2021/03/24 11:18:11;;;;;;;51.67;27.55;;;14.00;68.60;;;;;;4954975;29;20023;-86
2021/03/24 11:20:49;;;;;;;49.90;26.27;;;14.00;67.90;;;;;;4955435;29;20032;-86
2021/03/24 11:23:21;;;;;;;47.03;26.05;;;14.00;67.30;;;;;;4938193;29;20020;-86
2021/03/24 11:26:04;;;;;;;51.60;25.95;;;14.10;67.30;;;;;;4937406;29;20469;-86
2021/03/24 11:28:38;;;;;;;42.05;22.55;;;14.10;67.00;;;;;;4954234;29;20023;-86
2021/03/24 11:31:11;;;;;;;48.50;25.35;;;14.10;65.90;;;;;;4955104;29;20110;-86
2021/03/24 11:34:02;;;;;;;43.35;24.65;;;14.20;66.00;;;;;;4938001;29;20123;-86
2021/03/24 11:36:37;;;;;;;44.78;23.58;;;14.30;66.30;;;;;;4955193;29;20062;-86
2021/03/24 11:39:17;;;;;;;43.10;23.00;;;14.50;66.30;;;;;;4954451;28;20400;-86
2021/03/24 11:41:44;;;;;;;45.40;23.75;;;14.50;64.90;;;;;;4956291;29;20110;-85
2021/03/24 11:44:23;;;;;;;41.60;23.50;;;14.50;64.80;;;;;;4954652;28;20062;-86
2021/03/24 11:46:50;;;;;;;44.65;21.65;;;14.50;64.60;;;;;;4934139;29;20090;-86
2021/03/24 11:49:25;;;;;;;41.22;22.25;;;14.50;63.00;;;;;;4947367;29;20027;-85
2021/03/24 11:52:02;;;;;;;43.05;23.10;;;14.50;62.80;;;;;;4951172;28;20026;-85
2021/03/24 11:54:36;;;;;;;36.67;21.38;;;14.50;62.60;;;;;;4950655;28;20403;-85
2021/03/24 11:57:04;;;;;;;39.03;20.50;;;14.50;61.30;;;;;;4938416;29;20016;-85
2021/03/24 12:00:08;;;;;;;41.28;22.58;;;14.60;61.00;;;;;;4937781;29;20555;-85
2021/03/24 12:03:18;;;;;;;36.97;20.77;;;14.60;61.10;;;;;;4953564;28;20055;-85
2021/03/24 12:06:02;;;;;;;39.40;21.20;;;14.60;61.20;;;;;;4904097;29;20067;-86
2021/03/24 12:08:45;;;;;;;38.97;19.67;;;14.70;60.20;;;;;;4921166;28;20067;-86
2021/03/24 12:11:22;;;;;;;41.47;22.63;;;14.70;60.60;;;;;;4952253;29;20027;-87
2021/03/24 12:13:48;;;;;;;42.40;22.02;;;14.80;60.40;;;;;;4941478;29;20031;-86
2021/03/24 12:16:19;;;;;;;41.47;22.52;;;14.90;59.70;;;;;;4958253;29;20023;-86
2021/03/24 12:18:53;;;;;;;38.75;21.30;;;15.00;59.50;;;;;;4958742;29;20546;-86
2021/03/24 12:21:32;;;;;;;38.72;20.92;;;15.00;59.30;;;;;;4941633;29;20027;-86
2021/03/24 12:24:29;;;;;;;38.83;22.60;;;15.10;59.60;;;;;;4939732;29;20035;-86
2021/03/24 12:27:12;;;;;;;39.03;20.42;;;15.10;59.30;;;;;;4915986;29;20059;-86
2021/03/24 12:29:38;;;;;;;36.83;21.00;;;15.20;59.00;;;;;;4939614;29;20399;-85
2021/03/24 12:32:18;;;;;;;41.58;21.08;;;15.20;59.30;;;;;;4941079;29;20039;-84
2021/03/24 12:34:45;;;;;;;39.75;21.77;;;15.30;59.50;;;;;;4941017;29;20066;-84
2021/03/24 12:37:34;;;;;;;35.20;20.75;;;15.40;58.00;;;;;;4941098;29;20082;-85
2021/03/24 12:40:26;;;;;;;40.78;22.23;;;15.40;58.00;;;;;;4940825;29;20094;-84
2021/03/24 12:43:05;;;;;;;40.17;22.20;;;15.50;58.10;;;;;;4937748;29;20038;-85
2021/03/24 12:45:41;;;;;;;40.38;22.55;;;15.60;57.90;;;;;;4956697;28;20325;-85
2021/03/24 12:48:35;;;;;;;41.03;21.25;;;15.60;57.20;;;;;;4963750;28;20027;-85
2021/03/24 12:51:11;;;;;;;38.20;21.98;;;15.50;57.30;;;;;;4939379;29;20028;-85
2021/03/24 12:53:41;;;;;;;38.65;20.42;;;15.60;57.80;;;;;;4937688;29;20476;-85
2021/03/24 12:56:13;;;;;;;34.58;18.55;;;15.70;57.40;;;;;;4943008;29;20584;-84
2021/03/24 12:58:51;;;;;;;36.10;20.05;;;15.80;57.20;;;;;;4941481;29;20042;-84
2021/03/24 13:01:27;;;;;;;30.80;19.35;;;15.90;55.60;;;;;;4938964;29;20031;-85
2021/03/24 13:03:58;;;;;;;38.88;20.70;;;15.90;55.60;;;;;;4961880;28;20070;-85
2021/03/24 13:06:41;;;;;;;33.00;19.50;;;16.00;55.80;;;;;;4940091;29;20034;-85
2021/03/24 13:09:28;;;;;;;37.30;20.13;;;16.10;55.70;;;;;;4969721;28;20498;-85
2021/03/24 13:12:27;;;;;;;33.33;18.50;;;16.20;54.50;;;;;;4936549;29;20044;-85
2021/03/24 13:15:08;;;;;;;30.50;18.60;;;16.10;54.20;;;;;;4954570;28;20451;-85
2021/03/24 13:17:54;;;;;;;34.00;19.33;;;16.10;54.50;;;;;;4953269;28;20042;-85
2021/03/24 13:20:27;;;;;;;32.63;19.17;;;16.20;54.50;;;;;;4954660;28;20035;-85